sensor_id;sensor_type;location;lat;lon;timestamp;P1;durP1;ratioP1;P2;durP2;ratioP2
43070;SDS011;36278;47.952;21.714;2023-02-01T00:01:45;9.93;;;4.30;;
43070;SDS011;36278;47.952;21.714;2023-02-01T00:04:11;13.03;;;4.60;;
43070;SDS011;36278;47.952;21.714;2023-02-01T00:06:36;12.70;;;4.60;;
43070;SDS011;36278;47.952;21.714;2023-02-01T00:09:02;15.77;;;5.13;;
43070;SDS011;36278;47.952;21.714;2023-02-01T00:11:28;8.87;;;4.30;;
43070;SDS011;36278;47.952;21.714;2023-02-01T00:13:53;9.87;;;4.37;;
43070;SDS011;36278;47.952;21.714;2023-02-01T00:16:23;9.50;;;4.27;;
43070;SDS011;36278;47.952;21.714;2023-02-01T00:18:51;13.07;;;5.17;;
43070;SDS011;36278;47.952;21.714;2023-02-01T00:21:21;13.43;;;4.60;;
43070;SDS011;36278;47.952;21.714;2023-02-01T00:23:46;10.07;;;4.13;;
43070;SDS011;36278;47.952;21.714;2023-02-01T00:26:45;13.73;;;4.57;;
43070;SDS011;36278;47.952;21.714;2023-02-01T00:29:11;10.77;;;4.90;;
43070;SDS011;36278;47.952;21.714;2023-02-01T00:31:38;14.13;;;4.70;;
43070;SDS011;36278;47.952;21.714;2023-02-01T00:34:04;9.63;;;4.07;;
43070;SDS011;36278;47.952;21.714;2023-02-01T00:36:30;8.43;;;4.53;;
43070;SDS011;36278;47.952;21.714;2023-02-01T00:38:56;9.27;;;4.67;;
43070;SDS011;36278;47.952;21.714;2023-02-01T00:41:22;10.60;;;4.70;;
43070;SDS011;36278;47.952;21.714;2023-02-01T00:43:48;11.87;;;4.30;;
43070;SDS011;36278;47.952;21.714;2023-02-01T00:46:15;10.40;;;4.17;;
43070;SDS011;36278;47.952;21.714;2023-02-01T00:48:43;7.30;;;3.90;;
43070;SDS011;36278;47.952;21.714;2023-02-01T00:51:10;10.90;;;3.93;;
43070;SDS011;36278;47.952;21.714;2023-02-01T00:53:52;12.57;;;4.25;;
43070;SDS011;36278;47.952;21.714;2023-02-01T00:56:18;9.60;;;3.87;;
43070;SDS011;36278;47.952;21.714;2023-02-01T00:58:44;8.77;;;4.10;;
43070;SDS011;36278;47.952;21.714;2023-02-01T01:01:17;9.57;;;3.93;;
43070;SDS011;36278;47.952;21.714;2023-02-01T01:03:49;10.00;;;4.10;;
43070;SDS011;36278;47.952;21.714;2023-02-01T01:06:20;8.97;;;3.77;;
43070;SDS011;36278;47.952;21.714;2023-02-01T01:08:53;9.97;;;4.00;;
43070;SDS011;36278;47.952;21.714;2023-02-01T01:11:21;10.83;;;4.33;;
43070;SDS011;36278;47.952;21.714;2023-02-01T01:13:48;11.60;;;4.37;;
43070;SDS011;36278;47.952;21.714;2023-02-01T01:16:15;13.67;;;4.77;;
43070;SDS011;36278;47.952;21.714;2023-02-01T01:18:41;11.93;;;4.80;;
43070;SDS011;36278;47.952;21.714;2023-02-01T01:21:07;12.33;;;4.63;;
43070;SDS011;36278;47.952;21.714;2023-02-01T01:23:35;15.90;;;5.10;;
43070;SDS011;36278;47.952;21.714;2023-02-01T01:26:04;10.63;;;4.67;;
43070;SDS011;36278;47.952;21.714;2023-02-01T01:28:30;11.10;;;4.40;;
43070;SDS011;36278;47.952;21.714;2023-02-01T01:30:56;10.07;;;4.37;;
43070;SDS011;36278;47.952;21.714;2023-02-01T01:33:21;12.43;;;4.20;;
43070;SDS011;36278;47.952;21.714;2023-02-01T01:35:46;10.77;;;4.20;;
43070;SDS011;36278;47.952;21.714;2023-02-01T01:38:12;12.03;;;3.50;;
43070;SDS011;36278;47.952;21.714;2023-02-01T01:40:37;11.93;;;4.03;;
43070;SDS011;36278;47.952;21.714;2023-02-01T01:43:05;11.63;;;3.87;;
43070;SDS011;36278;47.952;21.714;2023-02-01T01:45:38;12.10;;;3.80;;
43070;SDS011;36278;47.952;21.714;2023-02-01T01:48:46;10.77;;;4.57;;
43070;SDS011;36278;47.952;21.714;2023-02-01T01:51:13;9.50;;;3.70;;
43070;SDS011;36278;47.952;21.714;2023-02-01T01:53:45;7.70;;;3.80;;
43070;SDS011;36278;47.952;21.714;2023-02-01T01:56:15;11.40;;;4.03;;
43070;SDS011;36278;47.952;21.714;2023-02-01T01:58:40;6.70;;;3.53;;
43070;SDS011;36278;47.952;21.714;2023-02-01T02:01:06;9.70;;;3.70;;
43070;SDS011;36278;47.952;21.714;2023-02-01T02:03:33;10.13;;;4.27;;
43070;SDS011;36278;47.952;21.714;2023-02-01T02:06:03;8.97;;;3.87;;
43070;SDS011;36278;47.952;21.714;2023-02-01T02:08:30;16.13;;;5.23;;
43070;SDS011;36278;47.952;21.714;2023-02-01T02:10:56;10.77;;;4.30;;
43070;SDS011;36278;47.952;21.714;2023-02-01T02:13:24;8.17;;;3.90;;
43070;SDS011;36278;47.952;21.714;2023-02-01T02:16:38;9.57;;;4.20;;
43070;SDS011;36278;47.952;21.714;2023-02-01T02:35:54;11.90;;;4.27;;
43070;SDS011;36278;47.952;21.714;2023-02-01T02:40:53;13.60;;;4.73;;
43070;SDS011;36278;47.952;21.714;2023-02-01T02:43:25;12.07;;;4.93;;
43070;SDS011;36278;47.952;21.714;2023-02-01T02:46:21;14.07;;;4.83;;
43070;SDS011;36278;47.952;21.714;2023-02-01T02:51:58;13.87;;;4.93;;
43070;SDS011;36278;47.952;21.714;2023-02-01T02:54:49;14.17;;;3.93;;
43070;SDS011;36278;47.952;21.714;2023-02-01T02:57:35;15.17;;;4.40;;
43070;SDS011;36278;47.952;21.714;2023-02-01T03:00:24;13.00;;;4.80;;
43070;SDS011;36278;47.952;21.714;2023-02-01T03:03:12;16.93;;;5.10;;
43070;SDS011;36278;47.952;21.714;2023-02-01T03:05:56;11.13;;;4.70;;
43070;SDS011;36278;47.952;21.714;2023-02-01T03:08:23;13.03;;;4.70;;
43070;SDS011;36278;47.952;21.714;2023-02-01T03:11:00;11.50;;;5.30;;
43070;SDS011;36278;47.952;21.714;2023-02-01T03:19:09;11.80;;;4.80;;
43070;SDS011;36278;47.952;21.714;2023-02-01T03:22:05;11.93;;;4.47;;
43070;SDS011;36278;47.952;21.714;2023-02-01T03:24:46;10.87;;;3.97;;
43070;SDS011;36278;47.952;21.714;2023-02-01T03:27:35;11.27;;;4.23;;
43070;SDS011;36278;47.952;21.714;2023-02-01T03:32:56;11.33;;;4.50;;
43070;SDS011;36278;47.952;21.714;2023-02-01T03:40:52;9.75;;;4.40;;
43070;SDS011;36278;47.952;21.714;2023-02-01T03:43:22;9.60;;;4.23;;
43070;SDS011;36278;47.952;21.714;2023-02-01T03:45:52;12.53;;;4.80;;
43070;SDS011;36278;47.952;21.714;2023-02-01T03:48:22;10.90;;;5.13;;
43070;SDS011;36278;47.952;21.714;2023-02-01T03:50:50;12.70;;;4.90;;
43070;SDS011;36278;47.952;21.714;2023-02-01T03:53:19;12.70;;;5.37;;
43070;SDS011;36278;47.952;21.714;2023-02-01T03:55:47;10.57;;;4.90;;
43070;SDS011;36278;47.952;21.714;2023-02-01T03:58:23;13.33;;;5.70;;
43070;SDS011;36278;47.952;21.714;2023-02-01T04:00:53;11.63;;;6.17;;
43070;SDS011;36278;47.952;21.714;2023-02-01T04:03:20;12.97;;;6.63;;
43070;SDS011;36278;47.952;21.714;2023-02-01T04:05:46;12.43;;;6.00;;
43070;SDS011;36278;47.952;21.714;2023-02-01T04:08:12;13.63;;;6.40;;
43070;SDS011;36278;47.952;21.714;2023-02-01T04:10:38;15.60;;;6.50;;
43070;SDS011;36278;47.952;21.714;2023-02-01T04:13:03;12.60;;;6.10;;
43070;SDS011;36278;47.952;21.714;2023-02-01T04:15:29;13.07;;;6.00;;
43070;SDS011;36278;47.952;21.714;2023-02-01T04:17:54;10.90;;;6.30;;
43070;SDS011;36278;47.952;21.714;2023-02-01T04:20:20;14.60;;;6.03;;
43070;SDS011;36278;47.952;21.714;2023-02-01T04:22:45;9.80;;;5.77;;
43070;SDS011;36278;47.952;21.714;2023-02-01T04:25:11;14.53;;;6.17;;
43070;SDS011;36278;47.952;21.714;2023-02-01T04:27:37;16.90;;;6.77;;
43070;SDS011;36278;47.952;21.714;2023-02-01T04:30:03;13.43;;;6.00;;
43070;SDS011;36278;47.952;21.714;2023-02-01T04:32:29;13.13;;;5.73;;
43070;SDS011;36278;47.952;21.714;2023-02-01T04:34:55;13.13;;;6.50;;
43070;SDS011;36278;47.952;21.714;2023-02-01T04:37:20;13.83;;;5.97;;
43070;SDS011;36278;47.952;21.714;2023-02-01T04:39:46;13.23;;;6.17;;
43070;SDS011;36278;47.952;21.714;2023-02-01T04:42:13;11.63;;;5.53;;
43070;SDS011;36278;47.952;21.714;2023-02-01T04:44:38;11.33;;;6.13;;
43070;SDS011;36278;47.952;21.714;2023-02-01T04:47:06;10.77;;;5.87;;
43070;SDS011;36278;47.952;21.714;2023-02-01T04:49:32;13.10;;;6.00;;
43070;SDS011;36278;47.952;21.714;2023-02-01T04:51:58;9.53;;;5.20;;
43070;SDS011;36278;47.952;21.714;2023-02-01T04:54:24;8.80;;;5.13;;
43070;SDS011;36278;47.952;21.714;2023-02-01T04:56:50;11.60;;;5.73;;
43070;SDS011;36278;47.952;21.714;2023-02-01T04:59:15;13.20;;;5.90;;
43070;SDS011;36278;47.952;21.714;2023-02-01T05:01:41;12.17;;;5.40;;
43070;SDS011;36278;47.952;21.714;2023-02-01T05:04:06;11.67;;;6.23;;
43070;SDS011;36278;47.952;21.714;2023-02-01T05:06:32;8.27;;;5.27;;
43070;SDS011;36278;47.952;21.714;2023-02-01T05:08:57;9.97;;;5.47;;
43070;SDS011;36278;47.952;21.714;2023-02-01T05:11:22;10.47;;;5.03;;
43070;SDS011;36278;47.952;21.714;2023-02-01T05:14:06;10.23;;;4.80;;
43070;SDS011;36278;47.952;21.714;2023-02-01T05:16:32;11.27;;;5.27;;
43070;SDS011;36278;47.952;21.714;2023-02-01T05:18:57;10.27;;;5.67;;
43070;SDS011;36278;47.952;21.714;2023-02-01T05:21:23;10.50;;;5.50;;
43070;SDS011;36278;47.952;21.714;2023-02-01T05:23:48;11.17;;;5.43;;
43070;SDS011;36278;47.952;21.714;2023-02-01T05:26:32;11.20;;;6.47;;
43070;SDS011;36278;47.952;21.714;2023-02-01T05:28:58;8.57;;;5.10;;
43070;SDS011;36278;47.952;21.714;2023-02-01T05:31:24;13.80;;;5.53;;
43070;SDS011;36278;47.952;21.714;2023-02-01T05:33:49;10.30;;;5.53;;
43070;SDS011;36278;47.952;21.714;2023-02-01T05:36:15;11.77;;;5.63;;
43070;SDS011;36278;47.952;21.714;2023-02-01T05:38:41;11.90;;;5.97;;
43070;SDS011;36278;47.952;21.714;2023-02-01T05:41:06;12.40;;;6.17;;
43070;SDS011;36278;47.952;21.714;2023-02-01T05:43:32;11.00;;;6.17;;
43070;SDS011;36278;47.952;21.714;2023-02-01T05:45:57;10.77;;;6.47;;
43070;SDS011;36278;47.952;21.714;2023-02-01T05:48:24;12.07;;;6.37;;
43070;SDS011;36278;47.952;21.714;2023-02-01T05:50:49;15.93;;;8.07;;
43070;SDS011;36278;47.952;21.714;2023-02-01T05:53:15;16.90;;;6.93;;
43070;SDS011;36278;47.952;21.714;2023-02-01T05:55:41;11.60;;;6.83;;
43070;SDS011;36278;47.952;21.714;2023-02-01T05:58:06;18.83;;;8.83;;
43070;SDS011;36278;47.952;21.714;2023-02-01T06:00:32;15.10;;;8.27;;
43070;SDS011;36278;47.952;21.714;2023-02-01T06:02:57;15.13;;;9.13;;
43070;SDS011;36278;47.952;21.714;2023-02-01T06:05:23;15.17;;;8.77;;
43070;SDS011;36278;47.952;21.714;2023-02-01T06:07:48;14.73;;;8.27;;
43070;SDS011;36278;47.952;21.714;2023-02-01T06:10:15;16.20;;;8.30;;
43070;SDS011;36278;47.952;21.714;2023-02-01T06:12:41;16.70;;;8.70;;
43070;SDS011;36278;47.952;21.714;2023-02-01T06:15:07;16.60;;;8.97;;
43070;SDS011;36278;47.952;21.714;2023-02-01T06:17:33;13.97;;;8.30;;
43070;SDS011;36278;47.952;21.714;2023-02-01T06:19:59;14.23;;;8.83;;
43070;SDS011;36278;47.952;21.714;2023-02-01T06:22:24;16.83;;;8.47;;
43070;SDS011;36278;47.952;21.714;2023-02-01T06:24:50;16.50;;;10.93;;
43070;SDS011;36278;47.952;21.714;2023-02-01T06:27:15;15.50;;;10.00;;
43070;SDS011;36278;47.952;21.714;2023-02-01T06:29:41;20.70;;;9.33;;
43070;SDS011;36278;47.952;21.714;2023-02-01T06:32:06;16.20;;;8.63;;
43070;SDS011;36278;47.952;21.714;2023-02-01T06:34:32;16.00;;;8.93;;
43070;SDS011;36278;47.952;21.714;2023-02-01T06:36:57;20.67;;;9.33;;
43070;SDS011;36278;47.952;21.714;2023-02-01T06:39:22;13.83;;;8.67;;
43070;SDS011;36278;47.952;21.714;2023-02-01T06:41:48;17.90;;;9.27;;
43070;SDS011;36278;47.952;21.714;2023-02-01T06:44:14;17.00;;;9.77;;
43070;SDS011;36278;47.952;21.714;2023-02-01T06:46:40;17.30;;;9.60;;
43070;SDS011;36278;47.952;21.714;2023-02-01T06:49:06;17.20;;;9.07;;
43070;SDS011;36278;47.952;21.714;2023-02-01T06:51:32;12.27;;;7.83;;
43070;SDS011;36278;47.952;21.714;2023-02-01T06:53:58;23.03;;;8.43;;
43070;SDS011;36278;47.952;21.714;2023-02-01T06:56:24;13.17;;;7.57;;
43070;SDS011;36278;47.952;21.714;2023-02-01T06:58:49;13.67;;;7.73;;
43070;SDS011;36278;47.952;21.714;2023-02-01T07:01:15;14.47;;;8.00;;
43070;SDS011;36278;47.952;21.714;2023-02-01T07:03:41;16.80;;;9.43;;
43070;SDS011;36278;47.952;21.714;2023-02-01T07:06:08;17.80;;;10.73;;
43070;SDS011;36278;47.952;21.714;2023-02-01T07:08:35;22.43;;;11.50;;
43070;SDS011;36278;47.952;21.714;2023-02-01T07:11:06;22.10;;;11.70;;
43070;SDS011;36278;47.952;21.714;2023-02-01T07:13:33;17.50;;;10.57;;
43070;SDS011;36278;47.952;21.714;2023-02-01T07:16:02;24.77;;;11.93;;
43070;SDS011;36278;47.952;21.714;2023-02-01T07:18:34;28.40;;;12.83;;
43070;SDS011;36278;47.952;21.714;2023-02-01T07:20:59;25.00;;;12.93;;
43070;SDS011;36278;47.952;21.714;2023-02-01T07:23:25;24.90;;;14.63;;
43070;SDS011;36278;47.952;21.714;2023-02-01T07:25:55;23.93;;;13.93;;
43070;SDS011;36278;47.952;21.714;2023-02-01T07:28:22;27.53;;;13.90;;
43070;SDS011;36278;47.952;21.714;2023-02-01T07:30:48;22.57;;;12.77;;
43070;SDS011;36278;47.952;21.714;2023-02-01T07:33:17;21.03;;;12.00;;
43070;SDS011;36278;47.952;21.714;2023-02-01T07:35:44;19.33;;;10.83;;
43070;SDS011;36278;47.952;21.714;2023-02-01T07:38:10;19.63;;;11.87;;
43070;SDS011;36278;47.952;21.714;2023-02-01T07:40:35;24.77;;;13.80;;
43070;SDS011;36278;47.952;21.714;2023-02-01T07:43:01;27.20;;;12.60;;
43070;SDS011;36278;47.952;21.714;2023-02-01T07:45:26;21.27;;;13.10;;
43070;SDS011;36278;47.952;21.714;2023-02-01T07:47:52;18.83;;;11.93;;
43070;SDS011;36278;47.952;21.714;2023-02-01T07:50:18;21.07;;;13.67;;
43070;SDS011;36278;47.952;21.714;2023-02-01T07:52:44;23.43;;;12.00;;
43070;SDS011;36278;47.952;21.714;2023-02-01T07:55:10;19.57;;;10.20;;
43070;SDS011;36278;47.952;21.714;2023-02-01T07:57:35;20.17;;;10.70;;
43070;SDS011;36278;47.952;21.714;2023-02-01T08:00:01;18.17;;;10.13;;
43070;SDS011;36278;47.952;21.714;2023-02-01T08:02:50;19.50;;;9.73;;
43070;SDS011;36278;47.952;21.714;2023-02-01T08:05:15;18.20;;;8.67;;
43070;SDS011;36278;47.952;21.714;2023-02-01T08:07:41;16.97;;;8.33;;
43070;SDS011;36278;47.952;21.714;2023-02-01T08:10:07;10.93;;;5.50;;
43070;SDS011;36278;47.952;21.714;2023-02-01T08:12:36;11.93;;;6.30;;
43070;SDS011;36278;47.952;21.714;2023-02-01T08:15:02;12.90;;;6.00;;
43070;SDS011;36278;47.952;21.714;2023-02-01T08:17:28;18.07;;;8.23;;
43070;SDS011;36278;47.952;21.714;2023-02-01T08:19:54;18.50;;;9.00;;
43070;SDS011;36278;47.952;21.714;2023-02-01T08:22:19;13.63;;;7.00;;
43070;SDS011;36278;47.952;21.714;2023-02-01T08:24:47;14.90;;;6.87;;
43070;SDS011;36278;47.952;21.714;2023-02-01T08:27:13;14.20;;;6.87;;
43070;SDS011;36278;47.952;21.714;2023-02-01T08:29:39;10.33;;;5.17;;
43070;SDS011;36278;47.952;21.714;2023-02-01T08:32:04;10.00;;;5.33;;
43070;SDS011;36278;47.952;21.714;2023-02-01T08:34:30;8.97;;;5.10;;
43070;SDS011;36278;47.952;21.714;2023-02-01T08:36:56;11.03;;;5.87;;
43070;SDS011;36278;47.952;21.714;2023-02-01T08:39:25;12.20;;;6.37;;
43070;SDS011;36278;47.952;21.714;2023-02-01T08:41:51;13.53;;;6.97;;
43070;SDS011;36278;47.952;21.714;2023-02-01T08:44:35;13.53;;;6.50;;
43070;SDS011;36278;47.952;21.714;2023-02-01T08:47:01;16.40;;;7.20;;
43070;SDS011;36278;47.952;21.714;2023-02-01T08:49:28;10.53;;;6.50;;
43070;SDS011;36278;47.952;21.714;2023-02-01T08:51:54;11.53;;;6.43;;
43070;SDS011;36278;47.952;21.714;2023-02-01T08:54:20;10.03;;;5.00;;
43070;SDS011;36278;47.952;21.714;2023-02-01T08:56:45;8.17;;;4.17;;
43070;SDS011;36278;47.952;21.714;2023-02-01T08:59:11;4.60;;;2.67;;
43070;SDS011;36278;47.952;21.714;2023-02-01T09:01:36;9.03;;;3.27;;
43070;SDS011;36278;47.952;21.714;2023-02-01T09:04:02;6.80;;;2.90;;
43070;SDS011;36278;47.952;21.714;2023-02-01T09:06:27;5.97;;;2.60;;
43070;SDS011;36278;47.952;21.714;2023-02-01T09:08:54;4.90;;;2.60;;
43070;SDS011;36278;47.952;21.714;2023-02-01T09:11:19;6.27;;;2.20;;
43070;SDS011;36278;47.952;21.714;2023-02-01T09:13:46;7.40;;;2.77;;
43070;SDS011;36278;47.952;21.714;2023-02-01T09:16:12;5.47;;;2.20;;
43070;SDS011;36278;47.952;21.714;2023-02-01T09:18:37;6.00;;;2.47;;
43070;SDS011;36278;47.952;21.714;2023-02-01T09:21:06;3.97;;;2.13;;
43070;SDS011;36278;47.952;21.714;2023-02-01T09:23:32;8.20;;;5.27;;
43070;SDS011;36278;47.952;21.714;2023-02-01T09:26:08;11.73;;;5.90;;
43070;SDS011;36278;47.952;21.714;2023-02-01T09:28:34;10.90;;;4.50;;
43070;SDS011;36278;47.952;21.714;2023-02-01T09:31:00;3.43;;;1.93;;
43070;SDS011;36278;47.952;21.714;2023-02-01T09:33:26;3.43;;;1.97;;
43070;SDS011;36278;47.952;21.714;2023-02-01T09:36:00;6.43;;;2.03;;
43070;SDS011;36278;47.952;21.714;2023-02-01T09:38:27;7.07;;;1.60;;
43070;SDS011;36278;47.952;21.714;2023-02-01T09:40:53;6.37;;;2.13;;
43070;SDS011;36278;47.952;21.714;2023-02-01T09:51:22;4.47;;;1.77;;
43070;SDS011;36278;47.952;21.714;2023-02-01T09:53:59;5.10;;;2.10;;
43070;SDS011;36278;47.952;21.714;2023-02-01T10:02:03;4.50;;;2.60;;
43070;SDS011;36278;47.952;21.714;2023-02-01T10:07:23;11.83;;;5.13;;
43070;SDS011;36278;47.952;21.714;2023-02-01T10:26:25;7.03;;;4.43;;
43070;SDS011;36278;47.952;21.714;2023-02-01T10:28:56;8.83;;;4.10;;
43070;SDS011;36278;47.952;21.714;2023-02-01T10:31:31;7.90;;;4.43;;
43070;SDS011;36278;47.952;21.714;2023-02-01T10:39:26;6.27;;;3.60;;
43070;SDS011;36278;47.952;21.714;2023-02-01T10:41:52;7.77;;;4.00;;
43070;SDS011;36278;47.952;21.714;2023-02-01T10:44:22;6.03;;;3.90;;
43070;SDS011;36278;47.952;21.714;2023-02-01T10:46:54;6.20;;;3.90;;
43070;SDS011;36278;47.952;21.714;2023-02-01T10:54:33;7.50;;;3.83;;
43070;SDS011;36278;47.952;21.714;2023-02-01T10:57:01;6.43;;;3.43;;
43070;SDS011;36278;47.952;21.714;2023-02-01T10:59:27;5.50;;;3.50;;
43070;SDS011;36278;47.952;21.714;2023-02-01T11:01:59;6.13;;;2.63;;
43070;SDS011;36278;47.952;21.714;2023-02-01T11:04:36;5.40;;;2.63;;
43070;SDS011;36278;47.952;21.714;2023-02-01T11:07:07;7.80;;;3.60;;
43070;SDS011;36278;47.952;21.714;2023-02-01T11:09:42;9.87;;;2.83;;
43070;SDS011;36278;47.952;21.714;2023-02-01T11:12:57;5.13;;;3.00;;
43070;SDS011;36278;47.952;21.714;2023-02-01T11:15:20;4.20;;;2.70;;
43070;SDS011;36278;47.952;21.714;2023-02-01T11:17:49;6.80;;;2.70;;
43070;SDS011;36278;47.952;21.714;2023-02-01T11:23:11;5.97;;;2.83;;
43070;SDS011;36278;47.952;21.714;2023-02-01T11:25:48;6.10;;;2.70;;
43070;SDS011;36278;47.952;21.714;2023-02-01T11:28:20;5.00;;;2.93;;
43070;SDS011;36278;47.952;21.714;2023-02-01T11:30:59;5.30;;;2.90;;
43070;SDS011;36278;47.952;21.714;2023-02-01T11:33:32;10.15;;;3.55;;
43070;SDS011;36278;47.952;21.714;2023-02-01T11:36:09;8.20;;;2.70;;
43070;SDS011;36278;47.952;21.714;2023-02-01T11:38:39;6.27;;;2.30;;
43070;SDS011;36278;47.952;21.714;2023-02-01T11:41:12;5.80;;;2.20;;
43070;SDS011;36278;47.952;21.714;2023-02-01T11:43:54;6.27;;;2.47;;
43070;SDS011;36278;47.952;21.714;2023-02-01T11:46:32;6.77;;;2.27;;
43070;SDS011;36278;47.952;21.714;2023-02-01T11:49:13;27.20;;;10.40;;
43070;SDS011;36278;47.952;21.714;2023-02-01T12:00:40;6.32;;;2.22;;
43070;SDS011;36278;47.952;21.714;2023-02-01T12:11:29;7.53;;;2.63;;
43070;SDS011;36278;47.952;21.714;2023-02-01T12:36:32;7.77;;;2.40;;
43070;SDS011;36278;47.952;21.714;2023-02-01T12:39:07;6.93;;;3.00;;
43070;SDS011;36278;47.952;21.714;2023-02-01T12:47:16;4.47;;;2.60;;
43070;SDS011;36278;47.952;21.714;2023-02-01T12:49:52;8.13;;;2.30;;
43070;SDS011;36278;47.952;21.714;2023-02-01T12:52:27;6.57;;;2.00;;
43070;SDS011;36278;47.952;21.714;2023-02-01T12:57:33;7.57;;;2.30;;
43070;SDS011;36278;47.952;21.714;2023-02-01T13:00:18;7.13;;;2.60;;
43070;SDS011;36278;47.952;21.714;2023-02-01T13:03:00;6.50;;;2.58;;
43070;SDS011;36278;47.952;21.714;2023-02-01T13:05:35;3.03;;;1.60;;
43070;SDS011;36278;47.952;21.714;2023-02-01T13:08:13;3.50;;;1.87;;
43070;SDS011;36278;47.952;21.714;2023-02-01T13:10:50;5.88;;;1.92;;
43070;SDS011;36278;47.952;21.714;2023-02-01T13:16:15;5.83;;;1.77;;
43070;SDS011;36278;47.952;21.714;2023-02-01T13:18:52;9.07;;;2.13;;
43070;SDS011;36278;47.952;21.714;2023-02-01T13:21:26;5.00;;;1.83;;
43070;SDS011;36278;47.952;21.714;2023-02-01T13:23:56;5.33;;;1.70;;
43070;SDS011;36278;47.952;21.714;2023-02-01T13:26:23;4.60;;;1.70;;
43070;SDS011;36278;47.952;21.714;2023-02-01T13:28:53;5.80;;;2.20;;
43070;SDS011;36278;47.952;21.714;2023-02-01T13:39:54;6.07;;;2.00;;
43070;SDS011;36278;47.952;21.714;2023-02-01T13:42:51;5.97;;;1.95;;
43070;SDS011;36278;47.952;21.714;2023-02-01T13:45:21;6.93;;;2.17;;
43070;SDS011;36278;47.952;21.714;2023-02-01T13:47:50;6.77;;;2.50;;
43070;SDS011;36278;47.952;21.714;2023-02-01T13:50:21;5.90;;;2.53;;
43070;SDS011;36278;47.952;21.714;2023-02-01T13:52:55;8.03;;;2.37;;
43070;SDS011;36278;47.952;21.714;2023-02-01T13:55:46;6.30;;;2.87;;
43070;SDS011;36278;47.952;21.714;2023-02-01T13:58:21;6.30;;;2.87;;
43070;SDS011;36278;47.952;21.714;2023-02-01T14:01:31;6.93;;;2.40;;
43070;SDS011;36278;47.952;21.714;2023-02-01T14:03:55;10.00;;;2.83;;
43070;SDS011;36278;47.952;21.714;2023-02-01T14:11:38;7.63;;;3.93;;
43070;SDS011;36278;47.952;21.714;2023-02-01T14:14:37;11.77;;;3.40;;
43070;SDS011;36278;47.952;21.714;2023-02-01T14:19:50;5.13;;;1.87;;
43070;SDS011;36278;47.952;21.714;2023-02-01T14:24:51;7.97;;;2.60;;
43070;SDS011;36278;47.952;21.714;2023-02-01T14:27:20;6.93;;;3.03;;
43070;SDS011;36278;47.952;21.714;2023-02-01T14:30:00;8.47;;;3.23;;
43070;SDS011;36278;47.952;21.714;2023-02-01T14:32:39;8.67;;;3.47;;
43070;SDS011;36278;47.952;21.714;2023-02-01T14:35:24;6.63;;;3.07;;
43070;SDS011;36278;47.952;21.714;2023-02-01T14:37:51;6.90;;;2.90;;
43070;SDS011;36278;47.952;21.714;2023-02-01T14:40:24;8.57;;;2.90;;
43070;SDS011;36278;47.952;21.714;2023-02-01T14:42:53;10.57;;;3.07;;
43070;SDS011;36278;47.952;21.714;2023-02-01T14:55:41;7.60;;;2.73;;
43070;SDS011;36278;47.952;21.714;2023-02-01T15:00:55;7.17;;;3.30;;
43070;SDS011;36278;47.952;21.714;2023-02-01T15:05:55;5.70;;;2.40;;
43070;SDS011;36278;47.952;21.714;2023-02-01T15:08:27;5.87;;;2.30;;
43070;SDS011;36278;47.952;21.714;2023-02-01T15:10:55;10.82;;;2.72;;
43070;SDS011;36278;47.952;21.714;2023-02-01T15:13:25;8.30;;;2.83;;
43070;SDS011;36278;47.952;21.714;2023-02-01T15:18:40;6.20;;;2.30;;
43070;SDS011;36278;47.952;21.714;2023-02-01T15:21:12;6.37;;;2.57;;
43070;SDS011;36278;47.952;21.714;2023-02-01T15:23:44;8.47;;;2.57;;
43070;SDS011;36278;47.952;21.714;2023-02-01T15:26:23;6.13;;;2.20;;
43070;SDS011;36278;47.952;21.714;2023-02-01T15:28:51;7.30;;;2.50;;
43070;SDS011;36278;47.952;21.714;2023-02-01T15:31:30;9.03;;;2.80;;
43070;SDS011;36278;47.952;21.714;2023-02-01T15:33:57;9.67;;;3.07;;
43070;SDS011;36278;47.952;21.714;2023-02-01T15:36:23;12.47;;;3.73;;
43070;SDS011;36278;47.952;21.714;2023-02-01T15:39:12;16.60;;;6.73;;
43070;SDS011;36278;47.952;21.714;2023-02-01T15:41:58;11.77;;;4.20;;
43070;SDS011;36278;47.952;21.714;2023-02-01T15:44:32;13.35;;;4.72;;
43070;SDS011;36278;47.952;21.714;2023-02-01T15:47:13;6.93;;;2.03;;
43070;SDS011;36278;47.952;21.714;2023-02-01T15:49:50;7.07;;;2.10;;
43070;SDS011;36278;47.952;21.714;2023-02-01T15:52:24;6.33;;;2.10;;
43070;SDS011;36278;47.952;21.714;2023-02-01T15:54:57;3.00;;;1.47;;
43070;SDS011;36278;47.952;21.714;2023-02-01T15:57:27;5.13;;;1.65;;
43070;SDS011;36278;47.952;21.714;2023-02-01T16:00:00;7.70;;;1.50;;
43070;SDS011;36278;47.952;21.714;2023-02-01T16:05:04;6.23;;;2.03;;
43070;SDS011;36278;47.952;21.714;2023-02-01T16:07:32;4.50;;;1.80;;
43070;SDS011;36278;47.952;21.714;2023-02-01T16:10:00;3.13;;;1.30;;
43070;SDS011;36278;47.952;21.714;2023-02-01T16:15:04;4.50;;;1.73;;
43070;SDS011;36278;47.952;21.714;2023-02-01T16:17:30;3.40;;;1.73;;
43070;SDS011;36278;47.952;21.714;2023-02-01T16:19:56;3.33;;;2.00;;
43070;SDS011;36278;47.952;21.714;2023-02-01T16:22:23;6.03;;;3.30;;
43070;SDS011;36278;47.952;21.714;2023-02-01T16:24:49;4.37;;;1.80;;
43070;SDS011;36278;47.952;21.714;2023-02-01T16:27:15;3.10;;;1.87;;
43070;SDS011;36278;47.952;21.714;2023-02-01T16:29:40;4.90;;;2.83;;
43070;SDS011;36278;47.952;21.714;2023-02-01T16:32:09;7.80;;;3.27;;
43070;SDS011;36278;47.952;21.714;2023-02-01T16:34:42;8.43;;;5.30;;
43070;SDS011;36278;47.952;21.714;2023-02-01T16:37:10;8.87;;;4.40;;
43070;SDS011;36278;47.952;21.714;2023-02-01T16:39:46;3.30;;;1.50;;
43070;SDS011;36278;47.952;21.714;2023-02-01T16:42:12;3.00;;;1.80;;
43070;SDS011;36278;47.952;21.714;2023-02-01T16:44:38;6.93;;;1.63;;
43070;SDS011;36278;47.952;21.714;2023-02-01T16:47:10;4.07;;;2.47;;
43070;SDS011;36278;47.952;21.714;2023-02-01T16:49:46;6.63;;;4.20;;
43070;SDS011;36278;47.952;21.714;2023-02-01T16:52:17;4.37;;;3.03;;
43070;SDS011;36278;47.952;21.714;2023-02-01T16:54:45;5.57;;;2.60;;
43070;SDS011;36278;47.952;21.714;2023-02-01T16:57:13;6.07;;;2.53;;
43070;SDS011;36278;47.952;21.714;2023-02-01T16:59:40;4.87;;;2.40;;
43070;SDS011;36278;47.952;21.714;2023-02-01T17:02:09;6.17;;;2.80;;
43070;SDS011;36278;47.952;21.714;2023-02-01T17:04:38;5.30;;;2.80;;
43070;SDS011;36278;47.952;21.714;2023-02-01T17:07:04;4.50;;;2.40;;
43070;SDS011;36278;47.952;21.714;2023-02-01T17:09:37;5.10;;;2.53;;
43070;SDS011;36278;47.952;21.714;2023-02-01T17:12:03;5.53;;;2.37;;
43070;SDS011;36278;47.952;21.714;2023-02-01T17:14:30;5.30;;;2.10;;
43070;SDS011;36278;47.952;21.714;2023-02-01T17:16:57;4.13;;;2.10;;
43070;SDS011;36278;47.952;21.714;2023-02-01T17:19:23;7.50;;;2.30;;
43070;SDS011;36278;47.952;21.714;2023-02-01T17:21:50;4.60;;;2.27;;
43070;SDS011;36278;47.952;21.714;2023-02-01T17:24:20;6.10;;;2.50;;
43070;SDS011;36278;47.952;21.714;2023-02-01T17:26:51;5.00;;;2.20;;
43070;SDS011;36278;47.952;21.714;2023-02-01T17:29:17;7.67;;;2.57;;
43070;SDS011;36278;47.952;21.714;2023-02-01T17:31:44;3.83;;;2.17;;
43070;SDS011;36278;47.952;21.714;2023-02-01T17:34:14;8.43;;;2.77;;
43070;SDS011;36278;47.952;21.714;2023-02-01T17:36:41;3.73;;;2.20;;
43070;SDS011;36278;47.952;21.714;2023-02-01T17:39:08;5.73;;;2.37;;